createdAt,value
2023-05-05T00:00:01.953Z,51.216007
2023-05-05T00:01:01.945Z,51.216011
2023-05-05T00:02:01.992Z,51.216042
2023-05-05T00:03:02.002Z,51.215973
2023-05-05T00:04:01.992Z,51.215992
2023-05-05T00:05:01.914Z,51.216038
2023-05-05T00:06:01.921Z,51.216087
2023-05-05T00:07:01.905Z,51.216022
2023-05-05T00:08:01.899Z,51.215996
2023-05-05T00:09:01.877Z,51.216053
2023-05-05T00:10:01.916Z,51.216053
2023-05-05T00:11:01.885Z,51.216198
2023-05-05T00:12:01.865Z,51.216267
2023-05-05T00:13:01.920Z,51.216183
2023-05-05T00:14:01.922Z,51.216198
2023-05-05T00:15:01.866Z,51.216187
2023-05-05T00:16:01.862Z,51.216167
2023-05-05T00:17:01.859Z,51.216148
2023-05-05T00:18:01.997Z,51.216160
2023-05-05T00:19:01.876Z,51.216175
2023-05-05T00:20:01.827Z,51.216148
2023-05-05T00:21:01.826Z,51.216278
2023-05-05T00:22:01.812Z,51.216248
2023-05-05T00:23:01.799Z,51.216190
2023-05-05T00:24:01.852Z,51.216133
2023-05-05T00:25:01.808Z,51.216061
2023-05-05T00:26:01.765Z,51.216129
2023-05-05T00:27:01.776Z,51.216179
2023-05-05T00:28:01.761Z,51.216068
2023-05-05T00:29:01.762Z,51.216049
2023-05-05T00:30:01.779Z,51.216209
2023-05-05T00:31:01.893Z,51.216160
2023-05-05T00:32:01.754Z,51.216114
2023-05-05T00:33:02.000Z,51.216064
2023-05-05T00:34:01.733Z,51.216263
2023-05-05T00:35:01.725Z,51.216251
2023-05-05T00:36:01.710Z,51.216125
2023-05-05T00:37:01.723Z,51.216080
2023-05-05T00:38:01.682Z,51.216125
2023-05-05T00:39:02.704Z,51.216141
2023-05-05T00:40:01.706Z,51.216129
2023-05-05T00:41:01.686Z,51.216152
2023-05-05T00:42:01.680Z,51.216057
2023-05-05T00:43:01.676Z,51.216087
2023-05-05T00:44:01.676Z,51.216080
2023-05-05T00:45:01.660Z,51.216091
2023-05-05T00:46:01.664Z,51.216084
2023-05-05T00:47:01.650Z,51.216072
2023-05-05T00:48:01.759Z,51.216084
2023-05-05T00:49:01.661Z,51.216125
2023-05-05T00:50:01.645Z,51.216141
2023-05-05T00:51:01.632Z,51.216110
2023-05-05T00:52:01.613Z,51.216091
2023-05-05T00:53:01.599Z,51.216133
2023-05-05T00:54:02.597Z,51.216167
2023-05-05T00:55:01.596Z,51.216198
2023-05-05T00:56:01.606Z,51.216202
2023-05-05T00:57:01.588Z,51.216190
2023-05-05T00:58:01.590Z,51.216206
2023-05-05T00:59:01.557Z,51.216232
2023-05-05T01:00:01.567Z,51.216209
2023-05-05T01:01:01.586Z,51.216137
2023-05-05T01:02:01.642Z,51.216152
2023-05-05T01:03:01.623Z,51.216068
2023-05-05T01:04:01.606Z,51.216084
2023-05-05T01:05:01.527Z,51.215977
2023-05-05T01:06:01.544Z,51.215935
2023-05-05T01:07:01.511Z,51.215988
2023-05-05T01:08:01.500Z,51.216064
2023-05-05T01:09:01.527Z,51.216015
2023-05-05T01:10:15.179Z,51.216019
2023-05-05T01:11:03.507Z,51.216019
2023-05-05T01:12:01.483Z,51.216084
2023-05-05T01:13:01.514Z,51.216137
2023-05-05T01:14:01.476Z,51.216087
2023-05-05T01:15:01.450Z,51.216038
2023-05-05T01:16:01.550Z,51.216061
2023-05-05T01:17:01.462Z,51.216053
2023-05-05T01:18:01.478Z,51.216007
2023-05-05T01:19:01.427Z,51.216122
2023-05-05T01:20:01.446Z,51.216026
2023-05-05T01:21:01.417Z,51.216000
2023-05-05T01:22:01.418Z,51.215954
2023-05-05T01:23:01.398Z,51.215984
2023-05-05T01:24:01.430Z,51.215961
2023-05-05T01:25:01.386Z,51.216049
2023-05-05T01:26:01.386Z,51.216106
2023-05-05T01:27:01.453Z,51.215923
2023-05-05T01:28:01.374Z,51.215870
2023-05-05T01:29:01.358Z,51.215889
2023-05-05T01:30:01.403Z,51.216045
2023-05-05T01:31:01.366Z,51.215981
2023-05-05T01:32:01.511Z,51.215950
2023-05-05T01:33:01.347Z,51.215965
2023-05-05T01:34:01.325Z,51.216080
2023-05-05T01:35:01.333Z,51.216095
2023-05-05T01:36:01.333Z,51.216099
2023-05-05T01:37:01.301Z,51.216087
2023-05-05T01:38:01.305Z,51.215996
2023-05-05T01:39:01.299Z,51.216045
2023-05-05T01:40:01.302Z,51.215954
2023-05-05T01:41:01.284Z,51.216137
2023-05-05T01:42:01.265Z,51.216179
2023-05-05T01:43:01.284Z,51.216103
2023-05-05T01:44:01.265Z,51.216049
2023-05-05T01:45:01.248Z,51.216099
2023-05-05T01:46:02.255Z,51.216087
2023-05-05T01:47:01.239Z,51.216148
2023-05-05T01:48:01.271Z,51.216118
2023-05-05T01:49:01.231Z,51.216206
2023-05-05T01:50:01.280Z,51.216232
2023-05-05T01:51:01.203Z,51.216187
2023-05-05T01:52:01.194Z,51.216179
2023-05-05T01:53:01.186Z,51.215988
2023-05-05T01:54:01.194Z,51.216000
2023-05-05T01:55:01.196Z,51.216103
2023-05-05T01:56:01.165Z,51.216015
2023-05-05T01:57:01.165Z,51.215950
2023-05-05T01:58:01.165Z,51.216007
2023-05-05T01:59:01.150Z,51.216175
2023-05-05T02:00:01.206Z,51.216442
2023-05-05T02:01:01.186Z,51.216331
2023-05-05T02:02:01.218Z,51.216110
2023-05-05T02:03:01.223Z,51.216106
2023-05-05T02:04:01.118Z,51.216099
2023-05-05T02:05:01.112Z,51.215862
2023-05-05T02:06:01.121Z,51.215794
2023-05-05T02:07:01.097Z,51.215874
2023-05-05T02:08:01.084Z,51.215965
2023-05-05T02:09:01.084Z,51.216293
2023-05-05T02:10:01.087Z,51.216133
2023-05-05T02:11:01.095Z,51.216156
2023-05-05T02:12:01.062Z,51.215931
2023-05-05T02:13:01.132Z,51.216370
2023-05-05T02:14:01.058Z,51.216499
2023-05-05T02:15:01.038Z,51.216423
2023-05-05T02:16:01.224Z,51.216400
2023-05-05T02:17:01.031Z,51.216118
2023-05-05T02:18:01.052Z,51.215927
2023-05-05T02:19:01.014Z,51.215691
2023-05-05T02:20:01.018Z,51.215656
2023-05-05T02:21:01.033Z,51.215710
2023-05-05T02:22:00.995Z,51.215881
2023-05-05T02:23:00.992Z,51.216152
2023-05-05T02:24:01.002Z,51.217033
2023-05-05T02:25:00.973Z,51.216820
2023-05-05T02:26:00.962Z,51.216278
2023-05-05T02:27:00.977Z,51.215824
2023-05-05T02:28:00.955Z,51.216011
2023-05-05T02:29:00.943Z,51.216167
2023-05-05T02:30:00.947Z,51.216240
2023-05-05T02:31:01.022Z,51.216248
2023-05-05T02:32:00.943Z,51.216255
2023-05-05T02:33:00.978Z,51.216221
2023-05-05T02:34:00.909Z,51.216213
2023-05-05T02:35:00.908Z,51.216240
2023-05-05T02:36:00.903Z,51.216209
2023-05-05T02:37:00.931Z,51.216114
2023-05-05T02:38:00.890Z,51.215912
2023-05-05T02:39:00.892Z,51.215843
2023-05-05T02:40:00.870Z,51.216190
2023-05-05T02:41:00.868Z,51.216064
2023-05-05T02:42:00.878Z,51.216080
2023-05-05T02:43:00.908Z,51.216236
2023-05-05T02:44:00.852Z,51.216110
2023-05-05T02:45:00.842Z,51.216068
2023-05-05T02:46:00.858Z,51.216106
2023-05-05T02:47:00.845Z,51.216148
2023-05-05T02:48:00.836Z,51.216042
2023-05-05T02:49:00.860Z,51.216236
2023-05-05T02:50:00.793Z,51.216148
2023-05-05T02:51:00.788Z,51.216396
2023-05-05T02:52:00.785Z,51.216225
2023-05-05T02:53:00.778Z,51.216206
2023-05-05T02:54:00.780Z,51.216278
2023-05-05T02:55:00.786Z,51.216347
2023-05-05T02:56:00.776Z,51.216312
2023-05-05T02:57:00.761Z,51.216209
2023-05-05T02:58:00.750Z,51.215866
2023-05-05T02:59:00.765Z,51.215843
2023-05-05T03:00:00.729Z,51.215828
2023-05-05T03:01:00.736Z,51.215836
2023-05-05T03:02:00.735Z,51.215900
2023-05-05T03:03:00.777Z,51.216022
2023-05-05T03:04:00.730Z,51.216072
2023-05-05T03:05:00.699Z,51.216084
2023-05-05T03:06:00.712Z,51.216225
2023-05-05T03:07:00.684Z,51.215992
2023-05-05T03:08:00.707Z,51.215923
2023-05-05T03:09:00.671Z,51.215881
2023-05-05T03:10:00.671Z,51.215897
2023-05-05T03:11:00.675Z,51.215961
2023-05-05T03:12:00.665Z,51.216042
2023-05-05T03:13:00.819Z,51.216057
2023-05-05T03:14:00.645Z,51.216038
2023-05-05T03:15:00.623Z,51.215897
2023-05-05T03:16:01.651Z,51.216042
2023-05-05T03:17:00.612Z,51.216156
2023-05-05T03:18:00.728Z,51.216343
2023-05-05T03:19:00.600Z,51.216171
2023-05-05T03:20:02.354Z,51.216206
2023-05-05T03:21:01.588Z,51.216133
2023-05-05T03:22:00.599Z,51.216160
2023-05-05T03:23:00.578Z,51.216164
2023-05-05T03:24:00.579Z,51.216175
2023-05-05T03:25:00.574Z,51.216133
2023-05-05T03:26:00.547Z,51.216106
2023-05-05T03:27:00.582Z,51.216118
2023-05-05T03:28:00.562Z,51.216145
2023-05-05T03:29:00.572Z,51.216072
2023-05-05T03:30:00.529Z,51.216129
2023-05-05T03:31:00.516Z,51.216072
2023-05-05T03:32:00.568Z,51.216084
2023-05-05T03:33:00.534Z,51.216156
2023-05-05T03:34:00.505Z,51.216080
2023-05-05T03:35:00.507Z,51.216064
2023-05-05T03:36:00.498Z,51.216114
2023-05-05T03:37:00.516Z,51.216167
2023-05-05T03:38:00.464Z,51.216137
2023-05-05T03:39:00.472Z,51.216190
2023-05-05T03:40:00.473Z,51.216003
2023-05-05T03:41:00.445Z,51.216099
2023-05-05T03:42:00.445Z,51.216038
2023-05-05T03:43:00.432Z,51.216103
2023-05-05T03:44:00.442Z,51.216152
2023-05-05T03:45:00.441Z,51.216034
2023-05-05T03:46:00.506Z,51.215912
2023-05-05T03:47:00.414Z,51.215897
2023-05-05T03:48:00.427Z,51.215988
2023-05-05T03:49:00.410Z,51.216091
2023-05-05T03:50:00.384Z,51.215981
2023-05-05T03:51:00.389Z,51.215988
2023-05-05T03:52:00.408Z,51.216019
2023-05-05T03:53:00.377Z,51.216019
2023-05-05T03:54:00.375Z,51.216114
2023-05-05T03:55:00.367Z,51.216187
2023-05-05T03:56:00.351Z,51.216167
2023-05-05T03:57:00.355Z,51.216228
2023-05-05T03:58:00.352Z,51.216171
2023-05-05T03:59:00.330Z,51.216160
2023-05-05T04:00:00.393Z,51.216206
2023-05-05T04:01:00.316Z,51.216179
2023-05-05T04:02:00.332Z,51.216194
2023-05-05T04:03:00.351Z,51.216187
2023-05-05T04:04:00.309Z,51.216194
2023-05-05T04:05:00.344Z,51.216160
2023-05-05T04:06:00.274Z,51.216167
2023-05-05T04:07:00.267Z,51.216187
2023-05-05T04:08:00.273Z,51.216152
2023-05-05T04:09:00.256Z,51.216171
2023-05-05T04:10:00.264Z,51.216152
2023-05-05T04:11:00.270Z,51.216187
2023-05-05T04:12:00.231Z,51.216160
2023-05-05T04:13:01.324Z,51.216141
2023-05-05T04:14:00.219Z,51.216171
2023-05-05T04:15:00.288Z,51.216206
2023-05-05T04:16:00.292Z,51.216213
2023-05-05T04:17:00.209Z,51.216221
2023-05-05T04:18:00.249Z,51.216194
2023-05-05T04:19:00.311Z,51.216202
2023-05-05T04:20:00.225Z,51.216171
2023-05-05T04:21:00.188Z,51.216179
2023-05-05T04:22:00.186Z,51.216175
2023-05-05T04:23:00.173Z,51.216114
2023-05-05T04:24:00.199Z,51.216125
2023-05-05T04:25:00.228Z,51.216160
2023-05-05T04:26:00.174Z,51.216183
2023-05-05T04:27:00.148Z,51.216118
2023-05-05T04:28:00.164Z,51.216145
2023-05-05T04:29:00.184Z,51.216091
2023-05-05T04:30:00.152Z,51.216122
2023-05-05T04:31:01.265Z,51.216103
2023-05-05T04:32:00.120Z,51.216103
2023-05-05T04:33:00.172Z,51.216122
2023-05-05T04:34:00.139Z,51.216110
2023-05-05T04:35:00.081Z,51.216167
2023-05-05T04:36:00.098Z,51.216137
2023-05-05T04:37:00.067Z,51.216099
2023-05-05T04:38:00.090Z,51.216179
2023-05-05T04:39:00.131Z,51.216110
2023-05-05T04:40:00.052Z,51.216099
2023-05-05T04:41:00.068Z,51.216064
2023-05-05T04:42:00.052Z,51.216179
2023-05-05T04:43:01.040Z,51.216049
2023-05-05T04:44:00.063Z,51.216026
2023-05-05T04:45:00.012Z,51.216091
2023-05-05T04:46:00.034Z,51.216183
2023-05-05T04:47:00.001Z,51.216171
2023-05-05T04:48:00.009Z,51.216164
2023-05-05T04:49:00.014Z,51.216114
2023-05-05T04:49:59.977Z,51.216145
2023-05-05T04:50:59.978Z,51.216087
2023-05-05T04:51:59.963Z,51.216103
2023-05-05T04:52:59.949Z,51.216030
2023-05-05T04:53:59.982Z,51.216076
2023-05-05T04:54:59.953Z,51.216038
2023-05-05T04:55:59.924Z,51.216122
2023-05-05T04:57:00.947Z,51.216148
2023-05-05T04:57:59.939Z,51.216106
2023-05-05T04:58:59.941Z,51.216099
2023-05-05T04:59:59.909Z,51.216057
2023-05-05T05:00:59.902Z,51.216099
2023-05-05T05:01:59.938Z,51.216045
2023-05-05T05:02:59.963Z,51.216076
2023-05-05T05:03:59.932Z,51.216076
2023-05-05T05:04:59.889Z,51.216110
2023-05-05T05:05:59.861Z,51.216099
2023-05-05T05:06:59.875Z,51.216099
2023-05-05T05:07:59.855Z,51.216087
2023-05-05T05:08:59.848Z,51.216042
2023-05-05T05:09:59.846Z,51.216034
2023-05-05T05:10:59.831Z,51.216095
2023-05-05T05:11:59.840Z,51.216099
2023-05-05T05:12:59.853Z,51.216084
2023-05-05T05:13:59.816Z,51.216129
2023-05-05T05:14:59.805Z,51.216087
2023-05-05T05:15:59.826Z,51.216103
2023-05-05T05:16:59.785Z,51.216145
2023-05-05T05:17:59.877Z,51.216164
2023-05-05T05:19:01.495Z,51.216228
2023-05-05T05:19:59.789Z,51.216160
2023-05-05T05:20:59.762Z,51.216061
2023-05-05T05:21:59.758Z,51.215988
2023-05-05T05:22:59.745Z,51.215889
2023-05-05T05:23:59.755Z,51.216019
2023-05-05T05:24:59.732Z,51.216202
2023-05-05T05:25:59.756Z,51.216305
2023-05-05T05:26:59.723Z,51.216137
2023-05-05T05:28:09.345Z,51.216114
2023-05-05T05:29:01.723Z,51.216091
2023-05-05T05:29:59.700Z,51.216118
2023-05-05T05:30:59.731Z,51.216133
2023-05-05T05:31:59.747Z,51.216106
2023-05-05T05:32:59.709Z,51.216080
2023-05-05T05:33:59.672Z,51.216103
2023-05-05T05:34:59.668Z,51.216137
2023-05-05T05:35:59.680Z,51.216118
2023-05-05T05:36:59.661Z,51.216042
2023-05-05T05:37:59.652Z,51.216106
2023-05-05T05:38:59.632Z,51.216068
2023-05-05T05:39:59.633Z,51.216057
2023-05-05T05:40:59.647Z,51.215996
2023-05-05T05:41:59.629Z,51.216007
2023-05-05T05:42:59.657Z,51.215992
2023-05-05T05:43:59.607Z,51.215923
2023-05-05T05:44:59.603Z,51.215984
2023-05-05T05:45:59.634Z,51.215996
2023-05-05T05:46:59.586Z,51.216022
2023-05-05T05:47:59.641Z,51.216091
2023-05-05T05:48:59.578Z,51.216118
2023-05-05T05:49:59.576Z,51.216003
2023-05-05T05:50:59.573Z,51.215881
2023-05-05T05:51:59.558Z,51.215858
2023-05-05T05:52:59.576Z,51.215981
2023-05-05T05:53:59.552Z,51.216084
2023-05-05T05:54:59.542Z,51.215958
2023-05-05T05:55:59.538Z,51.215988
2023-05-05T05:56:59.554Z,51.216087
2023-05-05T05:57:59.534Z,51.216103
2023-05-05T05:58:59.509Z,51.216064
2023-05-05T06:00:01.624Z,51.216064
2023-05-05T06:00:59.494Z,51.215950
2023-05-05T06:01:59.539Z,51.216007
2023-05-05T06:02:59.573Z,51.215927
2023-05-05T06:03:59.539Z,51.215984
2023-05-05T06:04:59.483Z,51.216064
2023-05-05T06:05:59.490Z,51.216015
2023-05-05T06:06:59.521Z,51.216076
2023-05-05T06:07:59.464Z,51.216209
2023-05-05T06:08:59.460Z,51.216152
2023-05-05T06:10:04.856Z,51.215996
2023-05-05T06:11:00.525Z,51.216011
2023-05-05T06:11:59.430Z,51.216007
2023-05-05T06:12:59.483Z,51.216034
2023-05-05T06:13:59.412Z,51.216125
2023-05-05T06:14:59.413Z,51.216087
2023-05-05T06:15:59.464Z,51.216061
2023-05-05T06:16:59.406Z,51.216053
2023-05-05T06:18:00.229Z,51.216022
2023-05-05T06:18:59.392Z,51.216038
2023-05-05T06:19:59.370Z,51.216087
2023-05-05T06:20:59.368Z,51.216049
2023-05-05T06:21:59.351Z,51.216057
2023-05-05T06:22:59.370Z,51.216076
2023-05-05T06:23:59.367Z,51.216072
2023-05-05T06:24:59.394Z,51.216095
2023-05-05T06:25:59.402Z,51.216122
2023-05-05T06:26:59.337Z,51.216152
2023-05-05T06:27:59.330Z,51.216114
2023-05-05T06:28:59.306Z,51.216106
2023-05-05T06:29:59.308Z,51.216156
2023-05-05T06:30:59.395Z,51.216137
2023-05-05T06:31:59.293Z,51.216042
2023-05-05T06:32:59.353Z,51.216038
2023-05-05T06:34:00.287Z,51.216106
2023-05-05T06:34:59.283Z,51.216125
2023-05-05T06:35:59.269Z,51.216072
2023-05-05T06:36:59.247Z,51.216087
2023-05-05T06:37:59.257Z,51.216156
2023-05-05T06:38:59.229Z,51.216110
2023-05-05T06:39:59.236Z,51.216125
2023-05-05T06:40:59.238Z,51.216095
2023-05-05T06:41:59.215Z,51.216171
2023-05-05T06:42:59.211Z,51.215961
2023-05-05T06:43:59.200Z,51.215942
2023-05-05T06:44:59.214Z,51.215950
2023-05-05T06:45:59.183Z,51.216022
2023-05-05T06:46:59.238Z,51.216072
2023-05-05T06:47:59.189Z,51.216068
2023-05-05T06:48:59.172Z,51.216080
2023-05-05T06:49:59.179Z,51.216114
2023-05-05T06:50:59.151Z,51.216129
2023-05-05T06:51:59.155Z,51.216141
2023-05-05T06:52:59.145Z,51.216084
2023-05-05T06:53:59.125Z,51.216061
2023-05-05T06:54:59.126Z,51.216053
2023-05-05T06:55:59.138Z,51.216068
2023-05-05T06:56:59.733Z,51.216034
2023-05-05T06:58:00.160Z,51.216011
2023-05-05T06:58:59.104Z,51.216087
2023-05-05T06:59:59.116Z,51.216019
2023-05-05T07:00:59.159Z,51.215923
2023-05-05T07:01:59.092Z,51.215973
2023-05-05T07:02:59.130Z,51.215984
2023-05-05T07:03:59.126Z,51.216045
2023-05-05T07:04:59.065Z,51.216057
2023-05-05T07:05:59.104Z,51.216076
2023-05-05T07:06:59.063Z,51.216080
2023-05-05T07:07:59.074Z,51.216064
2023-05-05T07:08:59.053Z,51.216118
2023-05-05T07:09:59.028Z,51.216099
2023-05-05T07:10:59.036Z,51.216133
2023-05-05T07:11:59.004Z,51.216232
2023-05-05T07:12:59.168Z,51.216156
2023-05-05T07:13:59.031Z,51.216000
2023-05-05T07:14:59.002Z,51.216011
2023-05-05T07:15:58.978Z,51.216049
2023-05-05T07:16:59.054Z,51.216076
2023-05-05T07:17:59.010Z,51.216038
2023-05-05T07:18:58.965Z,51.216053
2023-05-05T07:19:58.992Z,51.216061
2023-05-05T07:20:58.962Z,51.216084
2023-05-05T07:21:58.944Z,51.216160
2023-05-05T07:22:58.943Z,51.216145
2023-05-05T07:23:58.928Z,51.216156
2023-05-05T07:24:58.909Z,51.216251
2023-05-05T07:25:58.916Z,51.216183
2023-05-05T07:26:58.913Z,51.216114
2023-05-05T07:27:58.925Z,51.216019
2023-05-05T07:28:59.121Z,51.216007
2023-05-05T07:29:58.902Z,51.216068
2023-05-05T07:30:58.878Z,51.216122
2023-05-05T07:31:58.916Z,51.216148
2023-05-05T07:32:58.874Z,51.216171
2023-05-05T07:33:58.863Z,51.216053
2023-05-05T07:34:58.841Z,51.216057
2023-05-05T07:35:58.851Z,51.216068
2023-05-05T07:36:58.845Z,51.216080
2023-05-05T07:37:58.831Z,51.216061
2023-05-05T07:38:58.912Z,51.215981
2023-05-05T07:39:58.814Z,51.216072
2023-05-05T07:40:58.844Z,51.216045
2023-05-05T07:41:58.808Z,51.216076
2023-05-05T07:42:58.790Z,51.216091
2023-05-05T07:43:58.774Z,51.216118
2023-05-05T07:44:58.917Z,51.216137
2023-05-05T07:45:58.790Z,51.216152
2023-05-05T07:46:59.866Z,51.216152
2023-05-05T07:47:58.888Z,51.216160
2023-05-05T07:48:58.751Z,51.216137
2023-05-05T07:49:58.752Z,51.216171
2023-05-05T07:50:58.730Z,51.216122
2023-05-05T07:51:58.743Z,51.216148
2023-05-05T07:53:10.895Z,51.216061
2023-05-05T07:54:00.721Z,51.216038
2023-05-05T07:54:58.717Z,51.216106
2023-05-05T07:55:58.712Z,51.216133
2023-05-05T07:56:58.735Z,51.216133
2023-05-05T07:57:58.694Z,51.216114
2023-05-05T07:58:58.700Z,51.216152
2023-05-05T07:59:58.683Z,51.216129
2023-05-05T08:00:58.748Z,51.216110
2023-05-05T08:01:58.668Z,51.216087
2023-05-05T08:02:58.747Z,51.216110
2023-05-05T08:03:58.800Z,51.216106
2023-05-05T08:04:58.648Z,51.216103
2023-05-05T08:05:58.644Z,51.216084
2023-05-05T08:06:58.639Z,51.216133
2023-05-05T08:07:58.705Z,51.216091
2023-05-05T08:08:58.616Z,51.216084
2023-05-05T08:09:58.619Z,51.216133
2023-05-05T08:10:58.606Z,51.216068
2023-05-05T08:11:58.611Z,51.216076
2023-05-05T08:12:58.680Z,51.216141
2023-05-05T08:13:58.589Z,51.216084
2023-05-05T08:14:58.580Z,51.216114
2023-05-05T08:15:58.618Z,51.216080
2023-05-05T08:16:58.641Z,51.216061
2023-05-05T08:17:58.595Z,51.216038
2023-05-05T08:18:58.549Z,51.216110
2023-05-05T08:19:58.562Z,51.216114
2023-05-05T08:20:58.548Z,51.216114
2023-05-05T08:22:00.584Z,51.216141
2023-05-05T08:22:58.529Z,51.216209
2023-05-05T08:23:58.516Z,51.216202
2023-05-05T08:24:58.516Z,51.216099
2023-05-05T08:25:58.523Z,51.216145
2023-05-05T08:26:58.504Z,51.216030
2023-05-05T08:27:58.508Z,51.216164
2023-05-05T08:28:58.489Z,51.216125
2023-05-05T08:29:58.472Z,51.216118
2023-05-05T08:30:58.495Z,51.216042
2023-05-05T08:31:58.527Z,51.216084
2023-05-05T08:32:59.289Z,51.216076
2023-05-05T08:33:58.458Z,51.216110
2023-05-05T08:34:58.464Z,51.216232
2023-05-05T08:35:58.462Z,51.216194
2023-05-05T08:36:58.456Z,51.216164
2023-05-05T08:37:59.318Z,51.216019
2023-05-05T08:38:59.429Z,51.216007
2023-05-05T08:39:58.420Z,51.216038
2023-05-05T08:40:58.446Z,51.216087
2023-05-05T08:41:58.405Z,51.216141
2023-05-05T08:42:58.400Z,51.216152
2023-05-05T08:43:58.391Z,51.216164
2023-05-05T08:44:59.002Z,51.216156
2023-05-05T08:45:59.397Z,51.216213
2023-05-05T08:46:58.465Z,51.216194
2023-05-05T08:47:58.383Z,51.216091
2023-05-05T08:48:58.483Z,51.216118
2023-05-05T08:49:58.344Z,51.216141
2023-05-05T08:50:59.924Z,51.216221
2023-05-05T08:51:58.358Z,51.216099
2023-05-05T08:52:58.413Z,51.216084
2023-05-05T08:53:58.339Z,51.216194
2023-05-05T08:54:58.309Z,51.216110
2023-05-05T08:55:58.324Z,51.216064
2023-05-05T08:56:58.326Z,51.216064
2023-05-05T08:57:58.396Z,51.216049
2023-05-05T08:58:58.296Z,51.216091
2023-05-05T08:59:58.288Z,51.215969
2023-05-05T09:00:58.318Z,51.215961
2023-05-05T09:01:58.279Z,51.216061
2023-05-05T09:02:58.425Z,51.216110
2023-05-05T09:03:58.261Z,51.216106
2023-05-05T09:04:59.000Z,51.216175
2023-05-05T09:05:58.245Z,51.216125
2023-05-05T09:06:58.233Z,51.216099
2023-05-05T09:07:58.223Z,51.216103
2023-05-05T09:08:59.652Z,51.216099
2023-05-05T09:09:59.207Z,51.216076
2023-05-05T09:10:58.233Z,51.216175
2023-05-05T09:11:58.192Z,51.216179
2023-05-05T09:12:58.213Z,51.216160
2023-05-05T09:13:58.178Z,51.216148
2023-05-05T09:14:59.265Z,51.216118
2023-05-05T09:15:58.226Z,51.216114
2023-05-05T09:16:58.186Z,51.216042
2023-05-05T09:17:58.221Z,51.216038
2023-05-05T09:18:58.158Z,51.216068
2023-05-05T09:19:58.148Z,51.216114
2023-05-05T09:20:59.488Z,51.216129
2023-05-05T09:21:59.154Z,51.216022
2023-05-05T09:22:58.130Z,51.216049
2023-05-05T09:24:02.408Z,51.216064
2023-05-05T09:25:00.133Z,51.216106
2023-05-05T09:25:58.105Z,51.216129
2023-05-05T09:26:59.129Z,51.216148
2023-05-05T09:27:58.105Z,51.216106
2023-05-05T09:28:58.091Z,51.216095
2023-05-05T09:29:58.157Z,51.216125
2023-05-05T09:30:58.111Z,51.216167
2023-05-05T09:31:58.084Z,51.216072
2023-05-05T09:32:58.131Z,51.216091
2023-05-05T09:33:58.067Z,51.216118
2023-05-05T09:34:58.058Z,51.216202
2023-05-05T09:35:58.045Z,51.216183
2023-05-05T09:36:58.231Z,51.216122
2023-05-05T09:37:58.044Z,51.216141
2023-05-05T09:38:58.832Z,51.216137
2023-05-05T09:39:59.029Z,51.216122
2023-05-05T09:40:58.033Z,51.216076
2023-05-05T09:41:58.007Z,51.216156
2023-05-05T09:42:58.027Z,51.216133
2023-05-05T09:43:58.021Z,51.216068
2023-05-05T09:44:59.756Z,51.216099
2023-05-05T09:45:59.020Z,51.216087
2023-05-05T09:46:57.977Z,51.216106
2023-05-05T09:48:00.215Z,51.216076
2023-05-05T09:48:58.983Z,51.216030
2023-05-05T09:49:57.962Z,51.216103
2023-05-05T09:50:57.981Z,51.215969
2023-05-05T09:51:57.944Z,51.216034
2023-05-05T09:52:58.012Z,51.215973
2023-05-05T09:53:57.942Z,51.215958
2023-05-05T09:54:57.929Z,51.215965
2023-05-05T09:55:57.917Z,51.216061
2023-05-05T09:56:57.930Z,51.216129
2023-05-05T09:57:57.937Z,51.216072
2023-05-05T09:58:58.770Z,51.215973
2023-05-05T09:59:58.916Z,51.216087
2023-05-05T10:00:57.898Z,51.216171
2023-05-05T10:01:57.968Z,51.216152
2023-05-05T10:02:57.887Z,51.216099
2023-05-05T10:03:57.869Z,51.216061
2023-05-05T10:04:58.583Z,51.216160
2023-05-05T10:05:57.843Z,51.216087
2023-05-05T10:06:57.848Z,51.216072
2023-05-05T10:07:57.843Z,51.216110
2023-05-05T10:08:57.958Z,51.216129
2023-05-05T10:09:57.850Z,51.216145
2023-05-05T10:10:57.818Z,51.216133
2023-05-05T10:11:57.815Z,51.216133
2023-05-05T10:12:57.878Z,51.216080
2023-05-05T10:13:57.831Z,51.216145
2023-05-05T10:14:57.808Z,51.216148
2023-05-05T10:15:58.016Z,51.216190
2023-05-05T10:16:57.801Z,51.216187
2023-05-05T10:18:06.773Z,51.216095
2023-05-05T10:18:59.805Z,51.216175
2023-05-05T10:19:57.781Z,51.216194
2023-05-05T10:20:57.792Z,51.216099
2023-05-05T10:21:57.765Z,51.216244
2023-05-05T10:22:57.744Z,51.216278
2023-05-05T10:23:57.818Z,51.216263
2023-05-05T10:24:57.805Z,51.216324
2023-05-05T10:25:57.770Z,51.216221
2023-05-05T10:26:57.745Z,51.216213
2023-05-05T10:27:57.727Z,51.216164
2023-05-05T10:28:57.732Z,51.216167
2023-05-05T10:29:57.736Z,51.216179
2023-05-05T10:30:57.744Z,51.216137
2023-05-05T10:31:57.758Z,51.216240
2023-05-05T10:33:12.310Z,51.216152
2023-05-05T10:33:58.826Z,51.216129
2023-05-05T10:34:57.701Z,51.216167
2023-05-05T10:35:57.702Z,51.216179
2023-05-05T10:36:57.676Z,51.216213
2023-05-05T10:37:57.746Z,51.216187
2023-05-05T10:38:57.672Z,51.216095
2023-05-05T10:39:57.709Z,51.216152
2023-05-05T10:40:58.209Z,51.216080
2023-05-05T10:41:57.670Z,51.216160
2023-05-05T10:42:57.639Z,51.216114
2023-05-05T10:43:57.657Z,51.216034
2023-05-05T10:44:57.639Z,51.216068
2023-05-05T10:45:57.701Z,51.216125
2023-05-05T10:46:57.642Z,51.216244
2023-05-05T10:47:57.697Z,51.216179
2023-05-05T10:48:57.643Z,51.216118
2023-05-05T10:49:57.609Z,51.216347
2023-05-05T10:50:57.587Z,51.216240
2023-05-05T10:51:57.609Z,51.216320
2023-05-05T10:52:57.577Z,51.216400
2023-05-05T10:53:57.597Z,51.216137
2023-05-05T10:54:57.569Z,51.216198
2023-05-05T10:55:57.567Z,51.216228
2023-05-05T10:56:57.638Z,51.216114
2023-05-05T10:57:57.554Z,51.216061
2023-05-05T10:59:00.556Z,51.216148
2023-05-05T10:59:58.585Z,51.216034
2023-05-05T11:00:57.589Z,51.215908
2023-05-05T11:01:57.532Z,51.215939
2023-05-05T11:02:57.615Z,51.215946
2023-05-05T11:03:57.604Z,51.215931
2023-05-05T11:04:57.544Z,51.215927
2023-05-05T11:05:57.621Z,51.215981
2023-05-05T11:06:57.495Z,51.216122
2023-05-05T11:07:57.494Z,51.216202
2023-05-05T11:08:57.493Z,51.216255
2023-05-05T11:09:57.506Z,51.216084
2023-05-05T11:10:57.476Z,51.216164
2023-05-05T11:11:57.475Z,51.216160
2023-05-05T11:12:57.565Z,51.216095
2023-05-05T11:13:57.461Z,51.216122
2023-05-05T11:14:57.462Z,51.216175
2023-05-05T11:15:57.456Z,51.216125
2023-05-05T11:16:57.481Z,51.216244
2023-05-05T11:17:57.506Z,51.216160
2023-05-05T11:18:57.449Z,51.216156
2023-05-05T11:19:57.435Z,51.216141
2023-05-05T11:20:57.487Z,51.216148
2023-05-05T11:21:57.604Z,51.216125
2023-05-05T11:22:57.432Z,51.216122
2023-05-05T11:23:57.412Z,51.216118